Time,TemperatureF,DewpointF,PressureIn,WindDirection,WindDirectionDegrees,WindSpeedMPH,WindSpeedGustMPH,Humidity,HourlyPrecipIn,Conditions,Clouds,dailyrainin,SoftwareType,DateUTC
2013-04-24 00:04:00,37.5,32.2,30.18,North,9,6.0,6.0,81,0.00,,,0.00,Wunderground v.1.15,2013-04-24 05:04:00,
2013-04-24 00:18:00,37.5,32.5,30.18,North,355,5.0,5.0,82,0.00,,,0.00,Wunderground v.1.15,2013-04-24 05:18:00,
2013-04-24 00:34:00,37.4,32.1,30.17,North,9,5.0,5.0,81,0.00,,,0.00,Wunderground v.1.15,2013-04-24 05:34:00,
2013-04-24 00:48:00,37.4,32.1,30.18,North,355,5.0,5.0,81,0.00,,,0.00,Wunderground v.1.15,2013-04-24 05:48:00,
2013-04-24 01:04:00,37.5,31.9,30.18,NNW,345,4.0,4.0,80,0.00,,,0.00,Wunderground v.1.15,2013-04-24 06:04:00,
2013-04-24 01:18:00,37.6,31.7,30.18,NW,323,5.0,6.0,79,0.00,,,0.00,Wunderground v.1.15,2013-04-24 06:18:00,
2013-04-24 01:34:00,37.7,31.5,30.19,NNW,333,5.0,5.0,78,0.00,,,0.00,Wunderground v.1.15,2013-04-24 06:34:00,
2013-04-24 01:48:00,37.9,31.7,30.18,NNW,345,4.0,4.0,78,0.00,,,0.00,Wunderground v.1.15,2013-04-24 06:48:00,
2013-04-24 02:04:00,38.0,31.4,30.17,NNW,338,6.0,7.0,77,0.00,,,0.00,Wunderground v.1.15,2013-04-24 07:04:00,
2013-04-24 02:18:00,37.8,31.2,30.19,NW,324,7.0,11.0,77,0.00,,,0.00,Wunderground v.1.15,2013-04-24 07:18:00,
2013-04-24 02:34:00,37.8,31.2,30.18,NW,311,8.0,8.0,77,0.00,,,0.00,Wunderground v.1.15,2013-04-24 07:34:00,
2013-04-24 02:48:00,37.7,31.1,30.20,North,350,8.0,9.0,77,0.00,,,0.00,Wunderground v.1.15,2013-04-24 07:48:00,
2013-04-24 03:04:00,37.7,31.5,30.20,NNE,29,6.0,16.0,78,0.00,,,0.00,Wunderground v.1.15,2013-04-24 08:04:00,
2013-04-24 03:18:00,37.6,31.7,30.21,North,355,7.0,7.0,79,0.00,,,0.00,Wunderground v.1.15,2013-04-24 08:18:00,
2013-04-24 03:34:00,37.5,31.6,30.22,North,360,7.0,7.0,79,0.00,,,0.00,Wunderground v.1.15,2013-04-24 08:34:00,
2013-04-24 03:48:00,37.4,31.5,30.23,NNE,12,5.0,7.0,79,0.00,,,0.00,Wunderground v.1.15,2013-04-24 08:48:00,
2013-04-24 04:04:00,37.3,31.7,30.23,NNE,17,3.0,5.0,80,0.00,,,0.00,Wunderground v.1.15,2013-04-24 09:04:00,
2013-04-24 04:18:00,37.1,31.5,30.23,North,355,3.0,5.0,80,0.00,,,0.00,Wunderground v.1.15,2013-04-24 09:18:00,
2013-04-24 04:34:00,36.7,31.4,30.22,NNW,345,4.0,5.0,81,0.00,,,0.00,Wunderground v.1.15,2013-04-24 09:34:00,
2013-04-24 04:48:00,36.2,31.2,30.23,NE,41,4.0,4.0,82,0.00,,,0.00,Wunderground v.1.15,2013-04-24 09:48:00,
2013-04-24 05:04:00,35.9,31.2,30.24,NNW,338,4.0,4.0,83,0.00,,,0.00,Wunderground v.1.15,2013-04-24 10:04:00,
2013-04-24 05:18:00,35.5,31.1,30.22,NNW,343,4.0,5.0,84,0.00,,,0.00,Wunderground v.1.15,2013-04-24 10:18:00,
2013-04-24 05:34:00,35.1,31.0,30.24,NNE,22,3.0,5.0,85,0.00,,,0.00,Wunderground v.1.15,2013-04-24 10:34:00,
2013-04-24 05:48:00,34.9,30.8,30.24,North,9,3.0,3.0,85,0.00,,,0.00,Wunderground v.1.15,2013-04-24 10:48:00,
2013-04-24 06:04:00,34.4,30.6,30.25,North,355,2.0,3.0,86,0.00,,,0.00,Wunderground v.1.15,2013-04-24 11:04:00,
2013-04-24 06:18:00,34.3,30.5,30.25,North,360,2.0,2.0,86,0.00,,,0.00,Wunderground v.1.15,2013-04-24 11:18:00,
2013-04-24 06:34:00,34.1,30.4,30.25,NNW,348,4.0,4.0,86,0.00,,,0.00,Wunderground v.1.15,2013-04-24 11:34:00,
2013-04-24 06:48:00,34.1,30.1,30.25,NNW,342,3.0,5.0,85,0.00,,,0.00,Wunderground v.1.15,2013-04-24 11:48:00,
2013-04-24 07:04:00,34.0,30.0,30.25,NNW,342,4.0,4.0,85,0.00,,,0.00,Wunderground v.1.15,2013-04-24 12:04:00,
2013-04-24 07:18:00,34.3,30.0,30.25,NNW,332,3.0,5.0,84,0.00,,,0.00,Wunderground v.1.15,2013-04-24 12:18:00,
2013-04-24 07:34:00,34.7,30.4,30.26,NNE,24,3.0,3.0,84,0.00,,,0.00,Wunderground v.1.15,2013-04-24 12:34:00,
2013-04-24 07:48:00,35.4,30.5,30.26,NNW,344,3.0,6.0,82,0.00,,,0.00,Wunderground v.1.15,2013-04-24 12:48:00,
2013-04-24 08:04:00,36.4,30.5,30.27,NNW,345,3.0,3.0,79,0.00,,,0.00,Wunderground v.1.15,2013-04-24 13:04:00,
2013-04-24 08:18:00,37.2,29.0,30.26,NE,41,5.0,5.0,72,0.00,,,0.00,Wunderground v.1.15,2013-04-24 13:18:00,
2013-04-24 08:34:00,38.0,28.7,30.27,North,360,4.0,4.0,69,0.00,,,0.00,Wunderground v.1.15,2013-04-24 13:34:00,
2013-04-24 08:48:00,38.9,28.9,30.27,NNW,347,4.0,6.0,67,0.00,,,0.00,Wunderground v.1.15,2013-04-24 13:48:00,
2013-04-24 09:04:00,39.4,29.0,30.28,NE,37,4.0,4.0,66,0.00,,,0.00,Wunderground v.1.15,2013-04-24 14:04:00,
2013-04-24 09:18:00,40.1,27.3,30.28,North,355,4.0,10.0,60,0.00,,,0.00,Wunderground v.1.15,2013-04-24 14:18:00,
2013-04-24 09:34:00,40.4,26.4,30.28,NNE,25,7.0,7.0,57,0.00,,,0.00,Wunderground v.1.15,2013-04-24 14:34:00,
2013-04-24 09:48:00,40.9,26.4,30.28,NNE,29,7.0,7.0,56,0.00,,,0.00,Wunderground v.1.15,2013-04-24 14:48:00,
2013-04-24 10:04:00,42.1,26.2,30.29,NNE,17,5.0,5.0,53,0.00,,,0.00,Wunderground v.1.15,2013-04-24 15:04:00,
2013-04-24 10:18:00,43.0,27.0,30.29,NNE,28,4.0,8.0,53,0.00,,,0.00,Wunderground v.1.15,2013-04-24 15:18:00,
2013-04-24 10:34:00,44.1,27.1,30.29,NNE,19,3.0,4.0,51,0.00,,,0.00,Wunderground v.1.15,2013-04-24 15:34:00,
2013-04-24 10:48:00,45.1,26.1,30.30,WNW,298,3.0,5.0,47,0.00,,,0.00,Wunderground v.1.15,2013-04-24 15:48:00,
2013-04-24 11:04:00,45.0,25.4,30.30,North,349,5.0,5.0,46,0.00,,,0.00,Wunderground v.1.15,2013-04-24 16:04:00,
2013-04-24 11:18:00,45.3,25.7,30.30,NNE,17,4.0,4.0,46,0.00,,,0.00,Wunderground v.1.15,2013-04-24 16:18:00,
2013-04-24 11:34:00,46.7,25.9,30.30,NNE,15,4.0,4.0,44,0.00,,,0.00,Wunderground v.1.15,2013-04-24 16:34:00,
2013-04-24 11:48:00,46.8,24.3,30.29,NNW,348,5.0,5.0,41,0.00,,,0.00,Wunderground v.1.15,2013-04-24 16:48:00,
2013-04-24 12:04:00,47.9,24.7,30.29,NNE,19,5.0,5.0,40,0.00,,,0.00,Wunderground v.1.15,2013-04-24 17:04:00,
2013-04-24 12:18:00,48.8,26.1,30.28,NNE,28,5.0,7.0,41,0.00,,,0.00,Wunderground v.1.15,2013-04-24 17:18:00,
2013-04-24 12:34:00,49.5,25.5,30.28,NE,36,5.0,5.0,39,0.00,,,0.00,Wunderground v.1.15,2013-04-24 17:34:00,
2013-04-24 12:48:00,49.5,25.5,30.28,North,355,6.0,6.0,39,0.00,,,0.00,Wunderground v.1.15,2013-04-24 17:48:00,
2013-04-24 13:04:00,50.8,27.3,30.28,West,278,4.0,5.0,40,0.00,,,0.00,Wunderground v.1.15,2013-04-24 18:04:00,
2013-04-24 13:18:00,52.1,26.6,30.27,North,5,2.0,2.0,37,0.00,,,0.00,Wunderground v.1.15,2013-04-24 18:18:00,
2013-04-24 13:34:00,52.8,26.6,30.27,North,351,3.0,3.0,36,0.00,,,0.00,Wunderground v.1.15,2013-04-24 18:34:00,
2013-04-24 13:48:00,54.2,27.8,30.26,ESE,114,2.0,2.0,36,0.00,,,0.00,Wunderground v.1.15,2013-04-24 18:48:00,
2013-04-24 14:04:00,54.0,27.6,30.26,NNE,22,3.0,3.0,36,0.00,,,0.00,Wunderground v.1.15,2013-04-24 19:04:00,
2013-04-24 14:18:00,54.2,28.5,30.26,NE,34,3.0,3.0,37,0.00,,,0.00,Wunderground v.1.15,2013-04-24 19:18:00,
2013-04-24 14:34:00,54.9,26.3,30.26,NNW,347,4.0,4.0,33,0.00,,,0.00,Wunderground v.1.15,2013-04-24 19:34:00,
2013-04-24 14:48:00,54.9,27.7,30.26,NW,323,2.0,2.0,35,0.00,,,0.00,Wunderground v.1.15,2013-04-24 19:48:00,
2013-04-24 15:04:00,55.7,27.0,30.26,NNW,329,3.0,3.0,33,0.00,,,0.00,Wunderground v.1.15,2013-04-24 20:04:00,
2013-04-24 15:18:00,56.6,27.8,30.25,NW,307,3.0,4.0,33,0.00,,,0.00,Wunderground v.1.15,2013-04-24 20:18:00,
2013-04-24 15:34:00,56.7,28.6,30.24,NE,38,2.0,3.0,34,0.00,,,0.00,Wunderground v.1.15,2013-04-24 20:34:00,
2013-04-24 15:48:00,56.4,28.3,30.24,NNW,335,5.0,5.0,34,0.00,,,0.00,Wunderground v.1.15,2013-04-24 20:48:00,
2013-04-24 16:04:00,56.9,28.1,30.23,North,350,3.0,4.0,33,0.00,,,0.00,Wunderground v.1.15,2013-04-24 21:04:00,
2013-04-24 16:18:00,57.9,28.9,30.22,NW,320,3.0,4.0,33,0.00,,,0.00,Wunderground v.1.15,2013-04-24 21:18:00,
2013-04-24 16:34:00,58.8,29.0,30.21,NNE,28,1.0,1.0,32,0.00,,,0.00,Wunderground v.1.15,2013-04-24 21:34:00,
2013-04-24 16:48:00,58.6,28.8,30.21,NNW,348,3.0,3.0,32,0.00,,,0.00,Wunderground v.1.15,2013-04-24 21:48:00,
2013-04-24 17:04:00,59.0,29.2,30.21,NNW,330,2.0,5.0,32,0.00,,,0.00,Wunderground v.1.15,2013-04-24 22:04:00,
2013-04-24 17:18:00,58.1,29.1,30.21,NNW,345,3.0,3.0,33,0.00,,,0.00,Wunderground v.1.15,2013-04-24 22:18:00,
2013-04-24 17:34:00,59.0,28.4,30.20,NNW,341,1.0,1.0,31,0.00,,,0.00,Wunderground v.1.15,2013-04-24 22:34:00,
2013-04-24 17:48:00,59.0,29.2,30.20,WNW,298,2.0,2.0,32,0.00,,,0.00,Wunderground v.1.15,2013-04-24 22:48:00,
2013-04-24 18:04:00,59.0,29.2,30.20,NW,319,2.0,2.0,32,0.00,,,0.00,Wunderground v.1.15,2013-04-24 23:04:00,
2013-04-24 18:18:00,59.0,29.2,30.20,North,351,2.0,2.0,32,0.00,,,0.00,Wunderground v.1.15,2013-04-24 23:18:00,
2013-04-24 18:34:00,59.0,29.2,30.21,North,360,2.0,4.0,32,0.00,,,0.00,Wunderground v.1.15,2013-04-24 23:34:00,
2013-04-24 18:48:00,59.4,29.5,30.21,North,360,0.0,0.0,32,0.00,,,0.00,Wunderground v.1.15,2013-04-24 23:48:00,
2013-04-24 19:04:00,58.4,30.1,30.21,East,93,1.0,1.0,34,0.00,,,0.00,Wunderground v.1.15,2013-04-25 00:04:00,
2013-04-24 19:18:00,58.2,29.9,30.21,East,93,0.0,1.0,34,0.00,,,0.00,Wunderground v.1.15,2013-04-25 00:18:00,
2013-04-24 19:34:00,57.6,30.1,30.21,ESE,109,0.0,0.0,35,0.00,,,0.00,Wunderground v.1.15,2013-04-25 00:34:00,
2013-04-24 19:48:00,56.6,29.9,30.22,ESE,109,0.0,0.0,36,0.00,,,0.00,Wunderground v.1.15,2013-04-25 00:48:00,
2013-04-24 20:04:00,55.4,29.5,30.22,ESE,109,0.0,0.0,37,0.00,,,0.00,Wunderground v.1.15,2013-04-25 01:04:00,
2013-04-24 20:18:00,54.7,30.2,30.22,ESE,109,0.0,0.0,39,0.00,,,0.00,Wunderground v.1.15,2013-04-25 01:18:00,
2013-04-24 20:34:00,53.8,30.6,30.22,ESE,109,0.0,0.0,41,0.00,,,0.00,Wunderground v.1.15,2013-04-25 01:34:00,
2013-04-24 20:48:00,53.3,30.8,30.22,ESE,109,0.0,0.0,42,0.00,,,0.00,Wunderground v.1.15,2013-04-25 01:48:00,
2013-04-24 21:04:00,52.7,31.4,30.23,ESE,111,0.0,0.0,44,0.00,,,0.00,Wunderground v.1.15,2013-04-25 02:04:00,
2013-04-24 21:18:00,52.3,31.6,30.24,ESE,112,0.0,1.0,45,0.00,,,0.00,Wunderground v.1.15,2013-04-25 02:18:00,
2013-04-24 21:34:00,51.6,30.9,30.25,ESE,119,2.0,2.0,45,0.00,,,0.00,Wunderground v.1.15,2013-04-25 02:34:00,
2013-04-24 21:48:00,51.2,31.1,30.25,ESE,121,1.0,1.0,46,0.00,,,0.00,Wunderground v.1.15,2013-04-25 02:48:00,
2013-04-24 22:04:00,50.9,30.8,30.26,ESE,122,2.0,2.0,46,0.00,,,0.00,Wunderground v.1.15,2013-04-25 03:04:00,
2013-04-24 22:18:00,50.5,31.0,30.26,SSW,205,2.0,2.0,47,0.00,,,0.00,Wunderground v.1.15,2013-04-25 03:18:00,
2013-04-24 22:34:00,49.7,30.3,30.27,South,187,0.0,0.0,47,0.00,,,0.00,Wunderground v.1.15,2013-04-25 03:34:00,
2013-04-24 22:48:00,49.1,30.2,30.27,South,187,0.0,0.0,48,0.00,,,0.00,Wunderground v.1.15,2013-04-25 03:48:00,
2013-04-24 23:04:00,47.7,30.4,30.28,South,187,0.0,0.0,51,0.00,,,0.00,Wunderground v.1.15,2013-04-25 04:04:00,
2013-04-24 23:18:00,47.5,30.7,30.27,South,187,0.0,2.0,52,0.00,,,0.00,Wunderground v.1.15,2013-04-25 04:18:00,
2013-04-24 23:22:00,47.5,30.7,30.27,South,187,1.0,2.0,52,0.00,,,0.00,Wunderground v.1.15,2013-04-25 04:22:00,
2013-04-24 23:34:00,47.2,30.9,30.28,South,187,0.0,0.0,53,0.00,,,0.00,Wunderground v.1.15,2013-04-25 04:34:00,
2013-04-24 23:36:00,47.2,30.9,30.28,South,187,0.0,0.0,53,0.00,,,0.00,Wunderground v.1.15,2013-04-25 04:36:00,
2013-04-24 23:48:00,47.0,30.7,30.28,South,187,1.0,1.0,53,0.00,,,0.00,Wunderground v.1.15,2013-04-25 04:48:00,
2013-04-24 23:52:00,47.0,30.7,30.28,South,187,1.0,1.0,53,0.00,,,0.00,Wunderground v.1.15,2013-04-25 04:52:00,